sensor_id;sensor_type;location;lat;lon;timestamp;temperature;humidity
12130;DHT22;6128;59.340;18.040;2022-12-29T00:01:44;3.00;99.90
12130;DHT22;6128;59.340;18.040;2022-12-29T00:04:13;3.10;99.90
12130;DHT22;6128;59.340;18.040;2022-12-29T00:06:41;3.10;99.90
12130;DHT22;6128;59.340;18.040;2022-12-29T00:09:09;3.10;99.90
12130;DHT22;6128;59.340;18.040;2022-12-29T00:11:38;3.10;99.90
12130;DHT22;6128;59.340;18.040;2022-12-29T00:14:05;3.20;99.90
12130;DHT22;6128;59.340;18.040;2022-12-29T00:16:50;3.20;99.90
12130;DHT22;6128;59.340;18.040;2022-12-29T00:19:17;3.20;99.90
12130;DHT22;6128;59.340;18.040;2022-12-29T00:22:02;3.20;99.90
12130;DHT22;6128;59.340;18.040;2022-12-29T00:24:46;3.20;99.90
12130;DHT22;6128;59.340;18.040;2022-12-29T00:27:32;3.30;99.90
12130;DHT22;6128;59.340;18.040;2022-12-29T00:30:23;3.20;99.90
12130;DHT22;6128;59.340;18.040;2022-12-29T00:33:09;3.20;99.90
12130;DHT22;6128;59.340;18.040;2022-12-29T00:35:57;3.20;99.90
12130;DHT22;6128;59.340;18.040;2022-12-29T00:38:25;3.20;99.90
12130;DHT22;6128;59.340;18.040;2022-12-29T00:41:09;3.20;99.90
12130;DHT22;6128;59.340;18.040;2022-12-29T00:43:55;3.30;99.90
12130;DHT22;6128;59.340;18.040;2022-12-29T00:46:42;3.30;99.90
12130;DHT22;6128;59.340;18.040;2022-12-29T00:49:12;3.30;99.90
12130;DHT22;6128;59.340;18.040;2022-12-29T00:51:59;3.30;99.90
12130;DHT22;6128;59.340;18.040;2022-12-29T00:54:27;3.30;99.90
12130;DHT22;6128;59.340;18.040;2022-12-29T00:56:55;3.20;99.90
12130;DHT22;6128;59.340;18.040;2022-12-29T00:59:23;3.20;99.90
12130;DHT22;6128;59.340;18.040;2022-12-29T01:01:51;3.20;99.90
12130;DHT22;6128;59.340;18.040;2022-12-29T01:04:19;3.20;99.90
12130;DHT22;6128;59.340;18.040;2022-12-29T01:06:47;3.10;99.90
12130;DHT22;6128;59.340;18.040;2022-12-29T01:09:14;3.10;99.90
12130;DHT22;6128;59.340;18.040;2022-12-29T01:11:59;3.10;99.90
12130;DHT22;6128;59.340;18.040;2022-12-29T01:14:27;3.10;99.90
12130;DHT22;6128;59.340;18.040;2022-12-29T01:16:55;3.10;99.90
12130;DHT22;6128;59.340;18.040;2022-12-29T01:19:22;3.10;99.90
12130;DHT22;6128;59.340;18.040;2022-12-29T01:21:50;3.10;99.90
12130;DHT22;6128;59.340;18.040;2022-12-29T01:24:18;3.20;99.90
12130;DHT22;6128;59.340;18.040;2022-12-29T01:26:45;3.20;99.90
12130;DHT22;6128;59.340;18.040;2022-12-29T01:29:13;3.20;99.90
12130;DHT22;6128;59.340;18.040;2022-12-29T01:31:41;3.20;99.90
12130;DHT22;6128;59.340;18.040;2022-12-29T01:34:08;3.20;99.90
12130;DHT22;6128;59.340;18.040;2022-12-29T01:36:36;3.20;99.90
12130;DHT22;6128;59.340;18.040;2022-12-29T01:39:03;3.20;99.90
12130;DHT22;6128;59.340;18.040;2022-12-29T01:41:32;3.20;99.90
12130;DHT22;6128;59.340;18.040;2022-12-29T01:44:00;3.20;99.90
12130;DHT22;6128;59.340;18.040;2022-12-29T01:46:30;3.20;99.90
12130;DHT22;6128;59.340;18.040;2022-12-29T01:49:08;3.10;99.90
12130;DHT22;6128;59.340;18.040;2022-12-29T01:51:40;3.10;99.90
12130;DHT22;6128;59.340;18.040;2022-12-29T01:54:11;3.10;99.90
12130;DHT22;6128;59.340;18.040;2022-12-29T01:56:40;3.10;99.90
12130;DHT22;6128;59.340;18.040;2022-12-29T01:59:10;3.10;99.90
12130;DHT22;6128;59.340;18.040;2022-12-29T02:01:39;3.10;99.90
12130;DHT22;6128;59.340;18.040;2022-12-29T02:04:09;3.10;99.90
12130;DHT22;6128;59.340;18.040;2022-12-29T02:06:43;3.10;99.90
12130;DHT22;6128;59.340;18.040;2022-12-29T02:09:12;3.10;99.90
12130;DHT22;6128;59.340;18.040;2022-12-29T02:11:39;3.10;99.90
12130;DHT22;6128;59.340;18.040;2022-12-29T02:14:09;3.10;99.90
12130;DHT22;6128;59.340;18.040;2022-12-29T02:16:49;3.10;99.90
12130;DHT22;6128;59.340;18.040;2022-12-29T02:19:52;3.10;99.90
12130;DHT22;6128;59.340;18.040;2022-12-29T02:22:29;3.10;99.90
12130;DHT22;6128;59.340;18.040;2022-12-29T02:25:27;3.10;99.90
12130;DHT22;6128;59.340;18.040;2022-12-29T02:28:21;3.10;99.90
12130;DHT22;6128;59.340;18.040;2022-12-29T02:31:03;3.10;99.90
12130;DHT22;6128;59.340;18.040;2022-12-29T02:33:47;3.00;99.90
12130;DHT22;6128;59.340;18.040;2022-12-29T02:36:24;3.00;99.90
12130;DHT22;6128;59.340;18.040;2022-12-29T02:38:59;3.00;99.90
12130;DHT22;6128;59.340;18.040;2022-12-29T02:41:32;3.00;99.90
12130;DHT22;6128;59.340;18.040;2022-12-29T02:44:04;3.00;99.90
12130;DHT22;6128;59.340;18.040;2022-12-29T02:46:40;3.00;99.90
12130;DHT22;6128;59.340;18.040;2022-12-29T02:49:11;3.10;99.90
12130;DHT22;6128;59.340;18.040;2022-12-29T02:51:52;3.10;99.90
12130;DHT22;6128;59.340;18.040;2022-12-29T02:54:21;3.10;99.90
12130;DHT22;6128;59.340;18.040;2022-12-29T02:57:12;3.20;99.90
12130;DHT22;6128;59.340;18.040;2022-12-29T02:59:41;3.20;99.90
12130;DHT22;6128;59.340;18.040;2022-12-29T03:02:29;3.20;99.90
12130;DHT22;6128;59.340;18.040;2022-12-29T03:05:11;3.30;99.90
12130;DHT22;6128;59.340;18.040;2022-12-29T03:07:48;3.30;99.90
12130;DHT22;6128;59.340;18.040;2022-12-29T03:10:30;3.30;99.90
12130;DHT22;6128;59.340;18.040;2022-12-29T03:13:04;3.40;99.90
12130;DHT22;6128;59.340;18.040;2022-12-29T03:15:58;3.40;99.90
12130;DHT22;6128;59.340;18.040;2022-12-29T03:18:46;3.40;99.90
12130;DHT22;6128;59.340;18.040;2022-12-29T03:21:19;3.50;99.90
12130;DHT22;6128;59.340;18.040;2022-12-29T03:24:11;3.50;99.90
12130;DHT22;6128;59.340;18.040;2022-12-29T03:26:40;3.50;99.90
12130;DHT22;6128;59.340;18.040;2022-12-29T03:29:09;3.40;99.90
12130;DHT22;6128;59.340;18.040;2022-12-29T03:31:37;3.40;99.90
12130;DHT22;6128;59.340;18.040;2022-12-29T03:34:07;3.50;99.90
12130;DHT22;6128;59.340;18.040;2022-12-29T03:36:40;3.50;99.90
12130;DHT22;6128;59.340;18.040;2022-12-29T03:39:11;3.50;99.90
12130;DHT22;6128;59.340;18.040;2022-12-29T03:41:41;3.50;99.90
12130;DHT22;6128;59.340;18.040;2022-12-29T03:44:10;3.50;99.90
12130;DHT22;6128;59.340;18.040;2022-12-29T03:46:38;3.50;99.90
12130;DHT22;6128;59.340;18.040;2022-12-29T03:49:06;3.50;99.90
12130;DHT22;6128;59.340;18.040;2022-12-29T03:51:33;3.50;99.90
12130;DHT22;6128;59.340;18.040;2022-12-29T03:54:01;3.50;99.90
12130;DHT22;6128;59.340;18.040;2022-12-29T03:56:28;3.60;99.90
12130;DHT22;6128;59.340;18.040;2022-12-29T03:58:55;3.50;99.90
12130;DHT22;6128;59.340;18.040;2022-12-29T04:01:22;3.60;99.90
12130;DHT22;6128;59.340;18.040;2022-12-29T04:03:49;3.60;99.90
12130;DHT22;6128;59.340;18.040;2022-12-29T04:06:17;3.60;99.90
12130;DHT22;6128;59.340;18.040;2022-12-29T04:08:45;3.60;99.90
12130;DHT22;6128;59.340;18.040;2022-12-29T04:11:12;3.60;99.90
12130;DHT22;6128;59.340;18.040;2022-12-29T04:13:42;3.60;99.90
12130;DHT22;6128;59.340;18.040;2022-12-29T04:16:09;3.60;99.90
12130;DHT22;6128;59.340;18.040;2022-12-29T04:18:36;3.70;99.90
12130;DHT22;6128;59.340;18.040;2022-12-29T04:21:03;3.70;99.90
12130;DHT22;6128;59.340;18.040;2022-12-29T04:23:34;3.70;99.90
12130;DHT22;6128;59.340;18.040;2022-12-29T04:26:02;3.70;99.90
12130;DHT22;6128;59.340;18.040;2022-12-29T04:28:30;3.70;99.90
12130;DHT22;6128;59.340;18.040;2022-12-29T04:30:57;3.70;99.90
12130;DHT22;6128;59.340;18.040;2022-12-29T04:33:25;3.70;99.90
12130;DHT22;6128;59.340;18.040;2022-12-29T04:35:53;3.70;99.90
12130;DHT22;6128;59.340;18.040;2022-12-29T04:38:21;3.70;99.90
12130;DHT22;6128;59.340;18.040;2022-12-29T04:40:51;3.80;99.90
12130;DHT22;6128;59.340;18.040;2022-12-29T04:43:18;3.80;99.90
12130;DHT22;6128;59.340;18.040;2022-12-29T04:45:47;3.80;99.90
12130;DHT22;6128;59.340;18.040;2022-12-29T04:48:15;3.80;99.90
12130;DHT22;6128;59.340;18.040;2022-12-29T04:50:43;3.80;99.90
12130;DHT22;6128;59.340;18.040;2022-12-29T04:53:10;3.80;99.90
12130;DHT22;6128;59.340;18.040;2022-12-29T04:55:37;3.80;99.90
12130;DHT22;6128;59.340;18.040;2022-12-29T04:58:06;3.90;99.90
12130;DHT22;6128;59.340;18.040;2022-12-29T05:00:33;3.90;99.90
12130;DHT22;6128;59.340;18.040;2022-12-29T05:03:01;3.90;99.90
12130;DHT22;6128;59.340;18.040;2022-12-29T05:05:31;3.90;99.90
12130;DHT22;6128;59.340;18.040;2022-12-29T05:07:58;3.90;99.90
12130;DHT22;6128;59.340;18.040;2022-12-29T05:10:25;3.90;99.90
12130;DHT22;6128;59.340;18.040;2022-12-29T05:12:52;3.90;99.90
12130;DHT22;6128;59.340;18.040;2022-12-29T05:15:21;3.90;99.90
12130;DHT22;6128;59.340;18.040;2022-12-29T05:17:48;3.90;99.90
12130;DHT22;6128;59.340;18.040;2022-12-29T05:20:15;3.90;99.90
12130;DHT22;6128;59.340;18.040;2022-12-29T05:22:43;4.00;99.90
12130;DHT22;6128;59.340;18.040;2022-12-29T05:25:13;4.00;99.90
12130;DHT22;6128;59.340;18.040;2022-12-29T05:27:40;4.00;99.90
12130;DHT22;6128;59.340;18.040;2022-12-29T05:30:08;4.00;99.90
12130;DHT22;6128;59.340;18.040;2022-12-29T05:32:36;4.00;99.90
12130;DHT22;6128;59.340;18.040;2022-12-29T05:35:04;4.00;99.90
12130;DHT22;6128;59.340;18.040;2022-12-29T05:37:31;4.00;99.90
12130;DHT22;6128;59.340;18.040;2022-12-29T05:39:58;4.00;99.90
12130;DHT22;6128;59.340;18.040;2022-12-29T05:42:26;4.00;99.90
12130;DHT22;6128;59.340;18.040;2022-12-29T05:44:53;4.00;99.90
12130;DHT22;6128;59.340;18.040;2022-12-29T05:47:20;4.00;99.90
12130;DHT22;6128;59.340;18.040;2022-12-29T05:49:49;4.00;99.90
12130;DHT22;6128;59.340;18.040;2022-12-29T05:52:17;4.00;99.90
12130;DHT22;6128;59.340;18.040;2022-12-29T05:54:44;4.00;99.90
12130;DHT22;6128;59.340;18.040;2022-12-29T05:57:11;4.00;99.90
12130;DHT22;6128;59.340;18.040;2022-12-29T05:59:38;4.00;99.90
12130;DHT22;6128;59.340;18.040;2022-12-29T06:02:05;4.00;99.90
12130;DHT22;6128;59.340;18.040;2022-12-29T06:04:32;4.00;99.90
12130;DHT22;6128;59.340;18.040;2022-12-29T06:07:01;4.00;99.90
12130;DHT22;6128;59.340;18.040;2022-12-29T06:09:28;4.10;99.90
12130;DHT22;6128;59.340;18.040;2022-12-29T06:11:55;4.10;99.90
12130;DHT22;6128;59.340;18.040;2022-12-29T06:14:22;4.10;99.90
12130;DHT22;6128;59.340;18.040;2022-12-29T06:16:49;4.10;99.90
12130;DHT22;6128;59.340;18.040;2022-12-29T06:19:16;4.10;99.90
12130;DHT22;6128;59.340;18.040;2022-12-29T06:21:43;4.10;99.90
12130;DHT22;6128;59.340;18.040;2022-12-29T06:24:11;4.10;99.90
12130;DHT22;6128;59.340;18.040;2022-12-29T06:26:38;4.10;99.90
12130;DHT22;6128;59.340;18.040;2022-12-29T06:29:06;4.10;99.90
12130;DHT22;6128;59.340;18.040;2022-12-29T06:31:33;4.10;99.90
12130;DHT22;6128;59.340;18.040;2022-12-29T06:34:00;4.20;99.90
12130;DHT22;6128;59.340;18.040;2022-12-29T06:36:28;4.20;99.90
12130;DHT22;6128;59.340;18.040;2022-12-29T06:38:55;4.20;99.90
12130;DHT22;6128;59.340;18.040;2022-12-29T06:41:24;4.20;99.90
12130;DHT22;6128;59.340;18.040;2022-12-29T06:43:51;4.20;99.90
12130;DHT22;6128;59.340;18.040;2022-12-29T06:46:18;4.20;99.90
12130;DHT22;6128;59.340;18.040;2022-12-29T06:48:45;4.20;99.90
12130;DHT22;6128;59.340;18.040;2022-12-29T06:51:12;4.20;99.90
12130;DHT22;6128;59.340;18.040;2022-12-29T06:53:39;4.20;99.90
12130;DHT22;6128;59.340;18.040;2022-12-29T06:56:07;4.30;99.90
12130;DHT22;6128;59.340;18.040;2022-12-29T06:58:36;4.30;99.90
12130;DHT22;6128;59.340;18.040;2022-12-29T07:01:03;4.30;99.90
12130;DHT22;6128;59.340;18.040;2022-12-29T07:03:30;4.30;99.90
12130;DHT22;6128;59.340;18.040;2022-12-29T07:05:57;4.30;99.90
12130;DHT22;6128;59.340;18.040;2022-12-29T07:08:24;4.30;99.90
12130;DHT22;6128;59.340;18.040;2022-12-29T07:10:51;4.30;99.90
12130;DHT22;6128;59.340;18.040;2022-12-29T07:13:18;4.30;99.90
12130;DHT22;6128;59.340;18.040;2022-12-29T07:15:47;4.30;99.90
12130;DHT22;6128;59.340;18.040;2022-12-29T07:18:14;4.30;99.90
12130;DHT22;6128;59.340;18.040;2022-12-29T07:20:41;4.30;99.90
12130;DHT22;6128;59.340;18.040;2022-12-29T07:23:08;4.40;99.90
12130;DHT22;6128;59.340;18.040;2022-12-29T07:25:35;4.30;99.90
12130;DHT22;6128;59.340;18.040;2022-12-29T07:28:02;4.40;99.90
12130;DHT22;6128;59.340;18.040;2022-12-29T07:30:29;4.40;99.90
12130;DHT22;6128;59.340;18.040;2022-12-29T07:32:58;4.40;99.90
12130;DHT22;6128;59.340;18.040;2022-12-29T07:35:25;4.40;99.90
12130;DHT22;6128;59.340;18.040;2022-12-29T07:37:52;4.40;99.90
12130;DHT22;6128;59.340;18.040;2022-12-29T07:40:20;4.40;99.90
12130;DHT22;6128;59.340;18.040;2022-12-29T07:42:47;4.40;99.90
12130;DHT22;6128;59.340;18.040;2022-12-29T07:45:14;4.40;99.90
12130;DHT22;6128;59.340;18.040;2022-12-29T07:47:41;4.30;99.90
12130;DHT22;6128;59.340;18.040;2022-12-29T07:50:10;4.40;99.90
12130;DHT22;6128;59.340;18.040;2022-12-29T07:52:37;4.40;99.90
12130;DHT22;6128;59.340;18.040;2022-12-29T07:55:05;4.40;99.90
12130;DHT22;6128;59.340;18.040;2022-12-29T07:57:33;4.40;99.90
12130;DHT22;6128;59.340;18.040;2022-12-29T08:00:03;4.40;99.90
12130;DHT22;6128;59.340;18.040;2022-12-29T08:02:30;4.40;99.90
12130;DHT22;6128;59.340;18.040;2022-12-29T08:04:57;4.40;99.90
12130;DHT22;6128;59.340;18.040;2022-12-29T08:07:25;4.40;99.90
12130;DHT22;6128;59.340;18.040;2022-12-29T08:09:53;4.40;99.90
12130;DHT22;6128;59.340;18.040;2022-12-29T08:12:28;4.40;99.90
12130;DHT22;6128;59.340;18.040;2022-12-29T08:14:56;4.40;99.90
12130;DHT22;6128;59.340;18.040;2022-12-29T08:17:23;4.40;99.90
12130;DHT22;6128;59.340;18.040;2022-12-29T08:19:50;4.40;99.90
12130;DHT22;6128;59.340;18.040;2022-12-29T08:22:17;4.40;99.90
12130;DHT22;6128;59.340;18.040;2022-12-29T08:24:45;4.40;99.90
12130;DHT22;6128;59.340;18.040;2022-12-29T08:27:13;4.40;99.90
12130;DHT22;6128;59.340;18.040;2022-12-29T08:29:40;4.50;99.90
12130;DHT22;6128;59.340;18.040;2022-12-29T08:32:07;4.50;99.90
12130;DHT22;6128;59.340;18.040;2022-12-29T08:34:35;4.50;99.90
12130;DHT22;6128;59.340;18.040;2022-12-29T08:37:02;4.50;99.90
12130;DHT22;6128;59.340;18.040;2022-12-29T08:39:29;4.50;99.90
12130;DHT22;6128;59.340;18.040;2022-12-29T08:41:57;4.50;99.90
12130;DHT22;6128;59.340;18.040;2022-12-29T08:44:24;4.50;99.90
12130;DHT22;6128;59.340;18.040;2022-12-29T08:46:51;4.60;99.90
12130;DHT22;6128;59.340;18.040;2022-12-29T08:49:18;4.50;99.90
12130;DHT22;6128;59.340;18.040;2022-12-29T08:51:46;4.50;99.90
12130;DHT22;6128;59.340;18.040;2022-12-29T08:54:13;4.50;99.90
12130;DHT22;6128;59.340;18.040;2022-12-29T08:56:40;4.50;99.90
12130;DHT22;6128;59.340;18.040;2022-12-29T08:59:08;4.60;99.90
12130;DHT22;6128;59.340;18.040;2022-12-29T09:01:35;4.60;99.90
12130;DHT22;6128;59.340;18.040;2022-12-29T09:04:06;4.60;99.90
12130;DHT22;6128;59.340;18.040;2022-12-29T09:06:33;4.60;99.90
12130;DHT22;6128;59.340;18.040;2022-12-29T09:09:00;4.60;99.90
12130;DHT22;6128;59.340;18.040;2022-12-29T09:11:27;4.60;99.90
12130;DHT22;6128;59.340;18.040;2022-12-29T09:13:54;4.60;99.90
12130;DHT22;6128;59.340;18.040;2022-12-29T09:16:23;4.60;99.90
12130;DHT22;6128;59.340;18.040;2022-12-29T09:18:52;4.60;99.90
12130;DHT22;6128;59.340;18.040;2022-12-29T09:21:20;4.70;99.90
12130;DHT22;6128;59.340;18.040;2022-12-29T09:23:48;4.70;99.90
12130;DHT22;6128;59.340;18.040;2022-12-29T09:26:15;4.70;99.90
12130;DHT22;6128;59.340;18.040;2022-12-29T09:28:42;4.70;99.90
12130;DHT22;6128;59.340;18.040;2022-12-29T09:31:10;4.80;99.90
12130;DHT22;6128;59.340;18.040;2022-12-29T09:33:38;4.80;99.90
12130;DHT22;6128;59.340;18.040;2022-12-29T09:36:06;4.80;99.90
12130;DHT22;6128;59.340;18.040;2022-12-29T09:38:34;4.80;99.90
12130;DHT22;6128;59.340;18.040;2022-12-29T09:41:06;4.80;99.90
12130;DHT22;6128;59.340;18.040;2022-12-29T09:43:55;4.80;99.90
12130;DHT22;6128;59.340;18.040;2022-12-29T09:46:26;4.80;99.90
12130;DHT22;6128;59.340;18.040;2022-12-29T09:49:04;4.80;99.90
12130;DHT22;6128;59.340;18.040;2022-12-29T09:51:34;4.90;99.90
12130;DHT22;6128;59.340;18.040;2022-12-29T09:54:20;4.90;99.90
12130;DHT22;6128;59.340;18.040;2022-12-29T09:56:51;5.00;99.90
12130;DHT22;6128;59.340;18.040;2022-12-29T09:59:21;5.00;99.90
12130;DHT22;6128;59.340;18.040;2022-12-29T10:01:54;5.00;99.90
12130;DHT22;6128;59.340;18.040;2022-12-29T10:04:26;5.00;99.90
12130;DHT22;6128;59.340;18.040;2022-12-29T10:06:56;5.00;99.90
12130;DHT22;6128;59.340;18.040;2022-12-29T10:09:27;5.00;99.90
12130;DHT22;6128;59.340;18.040;2022-12-29T10:12:06;5.10;99.90
12130;DHT22;6128;59.340;18.040;2022-12-29T10:14:47;5.10;99.90
12130;DHT22;6128;59.340;18.040;2022-12-29T10:17:24;5.10;99.90
12130;DHT22;6128;59.340;18.040;2022-12-29T10:20:07;5.10;99.90
12130;DHT22;6128;59.340;18.040;2022-12-29T10:22:47;5.10;99.90
12130;DHT22;6128;59.340;18.040;2022-12-29T10:25:22;5.10;99.90
12130;DHT22;6128;59.340;18.040;2022-12-29T10:27:50;5.10;99.90
12130;DHT22;6128;59.340;18.040;2022-12-29T10:30:18;5.10;99.90
12130;DHT22;6128;59.340;18.040;2022-12-29T10:32:48;5.10;99.90
12130;DHT22;6128;59.340;18.040;2022-12-29T10:35:20;5.10;99.90
12130;DHT22;6128;59.340;18.040;2022-12-29T10:37:53;5.20;99.90
12130;DHT22;6128;59.340;18.040;2022-12-29T10:40:25;5.10;99.90
12130;DHT22;6128;59.340;18.040;2022-12-29T10:42:54;5.20;99.90
12130;DHT22;6128;59.340;18.040;2022-12-29T10:45:26;5.20;99.90
12130;DHT22;6128;59.340;18.040;2022-12-29T10:48:00;5.20;99.90
12130;DHT22;6128;59.340;18.040;2022-12-29T10:50:30;5.20;99.90
12130;DHT22;6128;59.340;18.040;2022-12-29T10:52:59;5.30;99.90
12130;DHT22;6128;59.340;18.040;2022-12-29T10:55:30;5.30;99.90
12130;DHT22;6128;59.340;18.040;2022-12-29T10:58:02;5.30;99.90
12130;DHT22;6128;59.340;18.040;2022-12-29T11:00:32;5.30;99.90
12130;DHT22;6128;59.340;18.040;2022-12-29T11:06:09;5.30;99.90
12130;DHT22;6128;59.340;18.040;2022-12-29T11:08:41;5.40;99.90
12130;DHT22;6128;59.340;18.040;2022-12-29T11:11:12;5.40;99.90
12130;DHT22;6128;59.340;18.040;2022-12-29T11:13:50;5.40;99.90
12130;DHT22;6128;59.340;18.040;2022-12-29T11:16:28;5.40;99.90
12130;DHT22;6128;59.340;18.040;2022-12-29T11:18:56;5.40;99.90
12130;DHT22;6128;59.340;18.040;2022-12-29T11:21:30;5.50;99.90
12130;DHT22;6128;59.340;18.040;2022-12-29T11:23:59;5.50;99.90
12130;DHT22;6128;59.340;18.040;2022-12-29T11:26:27;5.50;99.90
12130;DHT22;6128;59.340;18.040;2022-12-29T11:29:23;5.50;99.90
12130;DHT22;6128;59.340;18.040;2022-12-29T11:31:52;5.50;99.90
12130;DHT22;6128;59.340;18.040;2022-12-29T11:34:22;5.50;99.90
12130;DHT22;6128;59.340;18.040;2022-12-29T11:36:54;5.50;99.90
12130;DHT22;6128;59.340;18.040;2022-12-29T11:39:29;5.60;99.90
12130;DHT22;6128;59.340;18.040;2022-12-29T11:41:57;5.60;99.90
12130;DHT22;6128;59.340;18.040;2022-12-29T11:44:25;5.60;99.90
12130;DHT22;6128;59.340;18.040;2022-12-29T11:46:54;5.60;99.90
12130;DHT22;6128;59.340;18.040;2022-12-29T11:49:25;5.60;99.90
12130;DHT22;6128;59.340;18.040;2022-12-29T11:51:56;5.60;99.90
12130;DHT22;6128;59.340;18.040;2022-12-29T11:54:27;5.60;99.90
12130;DHT22;6128;59.340;18.040;2022-12-29T11:56:55;5.60;99.90
12130;DHT22;6128;59.340;18.040;2022-12-29T11:59:37;5.60;99.90
12130;DHT22;6128;59.340;18.040;2022-12-29T12:02:40;5.60;99.90
12130;DHT22;6128;59.340;18.040;2022-12-29T12:05:22;5.60;99.90
12130;DHT22;6128;59.340;18.040;2022-12-29T12:07:56;5.70;99.90
12130;DHT22;6128;59.340;18.040;2022-12-29T12:10:29;5.60;99.90
12130;DHT22;6128;59.340;18.040;2022-12-29T12:13:11;5.60;99.90
12130;DHT22;6128;59.340;18.040;2022-12-29T12:15:46;5.60;99.90
12130;DHT22;6128;59.340;18.040;2022-12-29T12:18:18;5.60;99.90
12130;DHT22;6128;59.340;18.040;2022-12-29T12:20:50;5.60;99.90
12130;DHT22;6128;59.340;18.040;2022-12-29T12:23:27;5.60;99.90
12130;DHT22;6128;59.340;18.040;2022-12-29T12:26:01;5.60;99.90
12130;DHT22;6128;59.340;18.040;2022-12-29T12:28:37;5.60;99.90
12130;DHT22;6128;59.340;18.040;2022-12-29T12:31:16;5.60;99.90
12130;DHT22;6128;59.340;18.040;2022-12-29T12:33:46;5.60;99.90
12130;DHT22;6128;59.340;18.040;2022-12-29T12:36:28;5.60;99.90
12130;DHT22;6128;59.340;18.040;2022-12-29T12:39:02;5.70;99.90
12130;DHT22;6128;59.340;18.040;2022-12-29T12:41:38;5.70;99.90
12130;DHT22;6128;59.340;18.040;2022-12-29T12:44:16;5.70;99.90
12130;DHT22;6128;59.340;18.040;2022-12-29T12:47:02;5.70;99.90
12130;DHT22;6128;59.340;18.040;2022-12-29T12:50:02;5.70;99.90
12130;DHT22;6128;59.340;18.040;2022-12-29T12:52:44;5.70;99.90
12130;DHT22;6128;59.340;18.040;2022-12-29T12:55:35;5.80;99.90
12130;DHT22;6128;59.340;18.040;2022-12-29T12:58:12;5.80;99.90
12130;DHT22;6128;59.340;18.040;2022-12-29T13:00:50;5.80;99.90
12130;DHT22;6128;59.340;18.040;2022-12-29T13:03:30;5.80;99.90
12130;DHT22;6128;59.340;18.040;2022-12-29T13:06:16;5.80;99.90
12130;DHT22;6128;59.340;18.040;2022-12-29T13:09:13;5.80;99.90
12130;DHT22;6128;59.340;18.040;2022-12-29T13:11:55;5.80;99.90
12130;DHT22;6128;59.340;18.040;2022-12-29T13:14:36;5.80;99.90
12130;DHT22;6128;59.340;18.040;2022-12-29T13:17:11;5.80;99.90
12130;DHT22;6128;59.340;18.040;2022-12-29T13:19:43;5.80;99.90
12130;DHT22;6128;59.340;18.040;2022-12-29T13:22:16;5.80;99.90
12130;DHT22;6128;59.340;18.040;2022-12-29T13:24:55;5.80;99.90
12130;DHT22;6128;59.340;18.040;2022-12-29T13:27:29;5.80;99.90
12130;DHT22;6128;59.340;18.040;2022-12-29T13:30:02;5.80;99.90
12130;DHT22;6128;59.340;18.040;2022-12-29T13:32:44;5.80;99.90
12130;DHT22;6128;59.340;18.040;2022-12-29T13:35:31;5.80;99.90
12130;DHT22;6128;59.340;18.040;2022-12-29T13:38:09;5.80;99.90
12130;DHT22;6128;59.340;18.040;2022-12-29T13:40:41;5.90;99.90
12130;DHT22;6128;59.340;18.040;2022-12-29T13:43:12;5.80;99.90
12130;DHT22;6128;59.340;18.040;2022-12-29T13:45:42;5.90;99.90
12130;DHT22;6128;59.340;18.040;2022-12-29T13:48:14;5.90;99.90
12130;DHT22;6128;59.340;18.040;2022-12-29T13:50:45;5.80;99.90
12130;DHT22;6128;59.340;18.040;2022-12-29T13:53:22;5.90;99.90
12130;DHT22;6128;59.340;18.040;2022-12-29T13:55:57;5.90;99.90
12130;DHT22;6128;59.340;18.040;2022-12-29T13:58:32;5.90;99.90
12130;DHT22;6128;59.340;18.040;2022-12-29T14:01:12;5.90;99.90
12130;DHT22;6128;59.340;18.040;2022-12-29T14:03:46;5.90;99.90
12130;DHT22;6128;59.340;18.040;2022-12-29T14:06:21;5.90;99.90
12130;DHT22;6128;59.340;18.040;2022-12-29T14:08:51;5.90;99.90
12130;DHT22;6128;59.340;18.040;2022-12-29T14:11:22;5.90;99.90
12130;DHT22;6128;59.340;18.040;2022-12-29T14:13:53;5.90;99.90
12130;DHT22;6128;59.340;18.040;2022-12-29T14:16:27;5.90;99.90
12130;DHT22;6128;59.340;18.040;2022-12-29T14:18:55;5.90;99.90
12130;DHT22;6128;59.340;18.040;2022-12-29T14:21:26;5.90;99.90
12130;DHT22;6128;59.340;18.040;2022-12-29T14:24:28;5.90;99.90
12130;DHT22;6128;59.340;18.040;2022-12-29T14:26:55;5.90;99.90
12130;DHT22;6128;59.340;18.040;2022-12-29T14:29:44;5.90;99.90
12130;DHT22;6128;59.340;18.040;2022-12-29T14:32:36;5.90;99.90
12130;DHT22;6128;59.340;18.040;2022-12-29T14:38:17;5.90;99.90
12130;DHT22;6128;59.340;18.040;2022-12-29T14:40:46;5.90;99.90
12130;DHT22;6128;59.340;18.040;2022-12-29T14:43:20;5.90;99.90
12130;DHT22;6128;59.340;18.040;2022-12-29T14:45:56;5.90;99.90
12130;DHT22;6128;59.340;18.040;2022-12-29T14:48:35;5.90;99.90
12130;DHT22;6128;59.340;18.040;2022-12-29T14:51:17;6.00;99.90
12130;DHT22;6128;59.340;18.040;2022-12-29T14:53:47;6.00;99.90
12130;DHT22;6128;59.340;18.040;2022-12-29T14:56:17;6.00;99.90
12130;DHT22;6128;59.340;18.040;2022-12-29T14:58:50;6.00;99.90
12130;DHT22;6128;59.340;18.040;2022-12-29T15:01:24;6.00;99.90
12130;DHT22;6128;59.340;18.040;2022-12-29T15:03:56;6.00;99.90
12130;DHT22;6128;59.340;18.040;2022-12-29T15:06:27;6.10;99.90
12130;DHT22;6128;59.340;18.040;2022-12-29T15:09:00;6.10;99.90
12130;DHT22;6128;59.340;18.040;2022-12-29T15:11:42;6.10;99.90
12130;DHT22;6128;59.340;18.040;2022-12-29T15:14:32;6.10;99.90
12130;DHT22;6128;59.340;18.040;2022-12-29T15:17:10;6.20;99.90
12130;DHT22;6128;59.340;18.040;2022-12-29T15:19:48;6.20;99.90
12130;DHT22;6128;59.340;18.040;2022-12-29T15:22:15;6.20;99.90
12130;DHT22;6128;59.340;18.040;2022-12-29T15:24:43;6.20;99.90
12130;DHT22;6128;59.340;18.040;2022-12-29T15:27:13;6.20;99.90
12130;DHT22;6128;59.340;18.040;2022-12-29T15:29:42;6.20;99.90
12130;DHT22;6128;59.340;18.040;2022-12-29T15:32:21;6.20;99.90
12130;DHT22;6128;59.340;18.040;2022-12-29T15:34:54;6.30;99.90
12130;DHT22;6128;59.340;18.040;2022-12-29T15:37:35;6.30;99.90
12130;DHT22;6128;59.340;18.040;2022-12-29T15:40:03;6.30;99.90
12130;DHT22;6128;59.340;18.040;2022-12-29T15:42:50;6.30;99.90
12130;DHT22;6128;59.340;18.040;2022-12-29T15:45:30;6.30;99.90
12130;DHT22;6128;59.340;18.040;2022-12-29T15:48:05;6.30;99.90
12130;DHT22;6128;59.340;18.040;2022-12-29T15:50:39;6.30;99.90
12130;DHT22;6128;59.340;18.040;2022-12-29T15:53:19;6.30;99.90
12130;DHT22;6128;59.340;18.040;2022-12-29T15:56:10;6.30;99.90
12130;DHT22;6128;59.340;18.040;2022-12-29T15:58:44;6.30;99.90
12130;DHT22;6128;59.340;18.040;2022-12-29T16:01:28;6.30;99.90
12130;DHT22;6128;59.340;18.040;2022-12-29T16:04:14;6.30;99.90
12130;DHT22;6128;59.340;18.040;2022-12-29T16:06:55;6.30;99.90
12130;DHT22;6128;59.340;18.040;2022-12-29T16:09:30;6.40;99.90
12130;DHT22;6128;59.340;18.040;2022-12-29T16:12:00;6.40;99.90
12130;DHT22;6128;59.340;18.040;2022-12-29T16:14:31;6.40;99.90
12130;DHT22;6128;59.340;18.040;2022-12-29T16:17:03;6.40;99.90
12130;DHT22;6128;59.340;18.040;2022-12-29T16:19:36;6.40;99.90
12130;DHT22;6128;59.340;18.040;2022-12-29T16:22:10;6.40;99.90
12130;DHT22;6128;59.340;18.040;2022-12-29T16:24:39;6.40;99.90